Time;durP1;ratioP1;P1;durP2;ratioP2;P2;SDS_P1;SDS_P2;PMS_P1;PMS_P2;Temp;Humidity;BMP_temperature;BMP_pressure;BME280_temperature;BME280_humidity;BME280_pressure;Samples;Min_cycle;Max_cycle;Signal;HPM_P1;HPM_P2
2023/01/19 00:00:38;;;;;;;19.80;12.45;;;1.80;99.90;;;;;;4986669;28;20557;-69
2023/01/19 00:03:14;;;;;;;21.02;12.25;;;1.90;99.90;;;;;;4969937;28;20038;-69
2023/01/19 00:05:42;;;;;;;16.90;10.90;;;1.80;99.90;;;;;;4985171;28;20041;-69
2023/01/19 00:08:15;;;;;;;15.65;11.10;;;1.80;99.90;;;;;;5003247;28;20041;-70
2023/01/19 00:10:46;;;;;;;19.35;12.30;;;1.80;99.90;;;;;;4992332;28;20586;-69
2023/01/19 00:13:12;;;;;;;17.85;12.23;;;1.80;99.90;;;;;;4990157;28;20033;-69
2023/01/19 00:15:38;;;;;;;16.27;11.55;;;1.80;99.90;;;;;;4959405;28;20042;-69
2023/01/19 00:18:04;;;;;;;16.30;11.40;;;1.80;99.90;;;;;;4971936;28;20510;-69
2023/01/19 00:20:34;;;;;;;16.30;11.18;;;1.80;99.90;;;;;;4989352;28;20038;-69
2023/01/19 00:23:00;;;;;;;12.02;9.05;;;2.10;99.90;;;;;;4991248;28;20313;-69
2023/01/19 00:25:26;;;;;;;15.18;9.93;;;1.80;99.90;;;;;;4975966;28;20452;-69
2023/01/19 00:27:57;;;;;;;18.45;10.85;;;1.80;99.90;;;;;;4976163;28;20037;-69
2023/01/19 00:30:22;;;;;;;13.05;9.70;;;1.70;99.90;;;;;;5008302;28;20120;-69
2023/01/19 00:32:48;;;;;;;12.02;8.15;;;1.70;99.90;;;;;;4958619;28;20136;-69
2023/01/19 00:35:14;;;;;;;11.05;8.73;;;1.70;99.90;;;;;;4969580;28;20038;-69
2023/01/19 00:37:40;;;;;;;11.98;9.23;;;1.70;99.90;;;;;;4973714;28;20041;-70
2023/01/19 00:40:07;;;;;;;12.50;9.75;;;1.70;99.90;;;;;;4987913;28;20061;-69
2023/01/19 00:42:38;;;;;;;15.00;10.88;;;1.00;99.90;;;;;;4991963;28;20125;-69
2023/01/19 00:45:08;;;;;;;13.48;9.43;;;1.60;99.90;;;;;;4958908;28;20069;-69
2023/01/19 00:47:41;;;;;;;9.73;7.15;;;1.70;99.90;;;;;;4973422;28;20044;-69
2023/01/19 00:50:10;;;;;;;14.77;9.32;;;1.60;99.90;;;;;;5009809;28;20058;-69
2023/01/19 00:52:38;;;;;;;10.77;8.43;;;1.60;99.90;;;;;;4990662;28;20453;-69
2023/01/19 00:55:05;;;;;;;11.93;8.32;;;1.60;99.90;;;;;;4989822;28;20073;-69
2023/01/19 00:57:31;;;;;;;12.32;8.50;;;1.60;99.90;;;;;;4988206;28;20100;-69
2023/01/19 00:59:57;;;;;;;10.60;7.78;;;1.60;99.90;;;;;;4987458;28;20050;-69
2023/01/19 01:02:23;;;;;;;8.57;6.72;;;1.60;99.90;;;;;;5006236;28;20044;-69
2023/01/19 01:04:53;;;;;;;9.52;7.13;;;1.50;99.90;;;;;;4991055;28;20095;-69
2023/01/19 01:07:20;;;;;;;8.95;6.35;;;1.50;99.90;;;;;;4974958;28;20037;-69
2023/01/19 01:09:46;;;;;;;10.07;7.25;;;1.50;99.90;;;;;;4986184;28;20038;-69
2023/01/19 01:12:16;;;;;;;7.85;6.22;;;1.50;99.90;;;;;;4971165;28;20321;-69
2023/01/19 01:14:42;;;;;;;9.82;7.05;;;1.60;99.90;;;;;;4987388;28;20050;-69
2023/01/19 01:17:10;;;;;;;11.02;7.70;;;1.50;99.90;;;;;;4989237;28;20431;-69
2023/01/19 01:19:40;;;;;;;10.98;7.82;;;1.40;99.90;;;;;;4988301;28;20069;-69
2023/01/19 01:22:06;;;;;;;10.88;8.27;;;1.50;99.90;;;;;;5005948;28;20034;-69
2023/01/19 01:24:32;;;;;;;12.13;8.98;;;1.50;99.90;;;;;;4988007;28;20038;-69
2023/01/19 01:26:58;;;;;;;9.98;7.88;;;1.60;99.90;;;;;;4970428;28;20060;-68
2023/01/19 01:29:23;;;;;;;12.73;9.43;;;1.50;99.90;;;;;;4989486;28;20407;-69
2023/01/19 01:31:50;;;;;;;13.57;10.32;;;1.80;99.90;;;;;;4987339;28;20045;-69
2023/01/19 01:34:22;;;;;;;14.30;10.30;;;1.40;99.90;;;;;;4959895;28;20091;-69
2023/01/19 01:36:48;;;;;;;14.07;10.65;;;1.30;99.90;;;;;;4967440;28;20041;-69
2023/01/19 01:39:13;;;;;;;14.55;11.65;;;1.30;99.90;;;;;;4987147;28;20072;-69
2023/01/19 01:41:39;;;;;;;16.45;11.75;;;1.30;99.90;;;;;;4990419;28;20040;-69
2023/01/19 01:44:48;;;;;;;13.15;10.40;;;1.30;99.90;;;;;;4971029;28;20073;-69
2023/01/19 01:47:22;;;;;;;18.17;12.60;;;1.30;99.90;;;;;;4989619;28;20088;-69
2023/01/19 01:49:59;;;;;;;18.35;11.55;;;1.30;99.90;;;;;;4986227;28;20446;-69
2023/01/19 01:52:27;;;;;;;16.02;11.35;;;1.30;99.90;;;;;;4970807;28;20104;-69
2023/01/19 01:54:55;;;;;;;18.45;12.13;;;1.30;99.90;;;;;;4988252;28;20368;-69
2023/01/19 01:57:21;;;;;;;16.88;11.45;;;1.30;99.90;;;;;;4973836;28;20038;-69
2023/01/19 01:59:49;;;;;;;17.35;12.13;;;1.30;99.90;;;;;;4989567;28;20426;-69
2023/01/19 02:05:17;;;;;;;15.13;10.40;;;1.30;99.90;;;;;;4988273;28;20491;-69
2023/01/19 02:13:25;;;;;;;21.27;13.73;;;1.40;99.90;;;;;;4986629;28;20121;-69
2023/01/19 02:15:57;;;;;;;20.52;13.73;;;1.30;99.90;;;;;;4968281;28;20065;-69
2023/01/19 02:18:26;;;;;;;24.73;14.52;;;1.60;99.90;;;;;;4972594;28;20042;-69
2023/01/19 02:21:04;;;;;;;20.08;13.02;;;1.30;99.90;;;;;;5006343;28;20506;-69
2023/01/19 02:23:38;;;;;;;21.33;14.60;;;1.40;99.90;;;;;;5003757;28;20104;-69
2023/01/19 02:26:08;;;;;;;20.77;14.18;;;1.30;99.90;;;;;;4972269;28;20065;-69
2023/01/19 02:28:37;;;;;;;22.30;14.75;;;1.30;99.90;;;;;;4966853;28;20046;-68
2023/01/19 02:31:04;;;;;;;18.17;11.68;;;1.30;99.90;;;;;;4974106;28;20045;-69
2023/01/19 02:33:29;;;;;;;26.80;14.55;;;1.40;99.90;;;;;;4988907;28;20133;-69
2023/01/19 02:35:56;;;;;;;21.77;14.85;;;1.40;99.90;;;;;;4985720;28;20475;-69
2023/01/19 02:38:25;;;;;;;23.13;14.02;;;1.40;99.90;;;;;;4973204;28;20038;-69
2023/01/19 02:40:57;;;;;;;26.02;15.52;;;1.40;99.90;;;;;;4991729;28;20053;-69
2023/01/19 02:43:24;;;;;;;20.42;14.50;;;1.40;99.90;;;;;;4975840;28;20402;-69
2023/01/19 02:45:50;;;;;;;25.75;15.98;;;1.50;99.90;;;;;;4976657;28;20046;-69
2023/01/19 02:48:19;;;;;;;21.30;14.00;;;1.40;99.90;;;;;;4991886;28;20045;-68
2023/01/19 02:50:49;;;;;;;23.27;13.65;;;1.60;99.90;;;;;;4972459;28;20060;-69
2023/01/19 02:53:52;;;;;;;17.15;12.45;;;1.40;99.90;;;;;;4974745;28;20056;-69
2023/01/19 02:56:39;;;;;;;20.73;13.13;;;1.50;99.90;;;;;;4991978;28;20056;-69
2023/01/19 02:59:43;;;;;;;17.75;12.32;;;1.50;99.90;;;;;;4992218;28;20150;-69
2023/01/19 03:02:37;;;;;;;20.13;13.57;;;1.50;99.90;;;;;;4990474;28;20049;-69
2023/01/19 03:05:16;;;;;;;19.35;12.73;;;1.50;99.90;;;;;;4992563;28;20499;-69
2023/01/19 03:08:01;;;;;;;23.55;14.70;;;1.50;99.90;;;;;;4969332;28;20034;-69
2023/01/19 03:10:44;;;;;;;24.15;15.68;;;1.50;99.90;;;;;;4974707;28;20407;-69
2023/01/19 03:13:17;;;;;;;26.98;16.48;;;1.50;99.90;;;;;;4992061;28;20091;-69
2023/01/19 03:16:04;;;;;;;25.17;16.20;;;1.50;99.90;;;;;;4992567;28;20038;-69
2023/01/19 03:18:34;;;;;;;26.20;16.25;;;1.50;99.90;;;;;;4991540;28;20049;-69
2023/01/19 03:21:04;;;;;;;38.47;16.52;;;1.50;99.90;;;;;;4972243;28;20047;-69
2023/01/19 03:23:32;;;;;;;27.38;17.48;;;1.60;99.90;;;;;;4985769;28;20388;-69
2023/01/19 03:26:01;;;;;;;26.13;16.83;;;1.50;99.90;;;;;;4984861;28;20030;-69
2023/01/19 03:28:28;;;;;;;28.83;18.38;;;1.50;99.90;;;;;;4970861;28;20042;-69
2023/01/19 03:31:09;;;;;;;27.02;15.85;;;1.50;99.90;;;;;;4985235;28;20050;-69
2023/01/19 03:33:41;;;;;;;24.88;15.77;;;1.50;99.90;;;;;;4987960;28;20048;-69
2023/01/19 03:36:22;;;;;;;27.15;17.15;;;1.80;99.90;;;;;;4984972;28;20071;-69
2023/01/19 03:38:52;;;;;;;29.83;17.80;;;1.60;99.90;;;;;;4987205;28;20041;-69
2023/01/19 03:41:22;;;;;;;25.13;15.90;;;1.70;99.90;;;;;;4990870;28;20057;-69
2023/01/19 03:43:50;;;;;;;27.27;16.67;;;1.80;99.90;;;;;;4992026;28;20069;-69
2023/01/19 03:46:18;;;;;;;26.20;16.27;;;1.50;99.90;;;;;;4989482;28;20041;-69
2023/01/19 03:48:45;;;;;;;21.67;13.65;;;1.50;99.90;;;;;;4967103;28;20099;-69
2023/01/19 03:51:13;;;;;;;26.75;17.23;;;1.50;99.90;;;;;;4974072;28;20041;-69
2023/01/19 03:53:41;;;;;;;31.15;18.52;;;1.50;99.90;;;;;;4989879;28;20486;-69
2023/01/19 03:56:21;;;;;;;27.63;17.35;;;1.50;99.90;;;;;;4991570;28;20120;-69
2023/01/19 03:58:48;;;;;;;26.95;17.65;;;1.50;99.90;;;;;;4990419;28;20140;-69
2023/01/19 04:01:23;;;;;;;24.73;15.32;;;1.50;99.90;;;;;;4975246;28;20133;-69
2023/01/19 04:03:50;;;;;;;25.15;14.98;;;1.50;99.90;;;;;;4974167;28;20042;-69
2023/01/19 04:06:17;;;;;;;21.88;14.48;;;1.50;99.90;;;;;;4997282;28;20042;-69
2023/01/19 04:08:49;;;;;;;;;;;1.50;99.90;;;;;;4977356;28;20084;-69
2023/01/19 04:11:24;;;;;;;25.20;13.90;;;1.50;99.90;;;;;;4990941;28;19964;-69
2023/01/19 04:13:50;;;;;;;20.63;13.57;;;1.50;99.90;;;;;;4989007;28;20035;-69
2023/01/19 04:16:19;;;;;;;22.00;14.18;;;1.50;99.90;;;;;;4986705;28;20071;-70
2023/01/19 04:18:47;;;;;;;21.70;14.32;;;1.40;99.90;;;;;;4993018;28;20041;-70
2023/01/19 04:21:14;;;;;;;26.00;15.13;;;1.50;99.90;;;;;;4990889;28;20046;-70
2023/01/19 04:23:40;;;;;;;25.83;14.68;;;1.40;99.90;;;;;;4980249;28;20136;-70
2023/01/19 04:26:07;;;;;;;20.45;14.15;;;1.40;99.90;;;;;;4987023;28;20080;-70
2023/01/19 04:28:35;;;;;;;22.85;14.32;;;1.40;99.90;;;;;;4972567;28;20077;-70
2023/01/19 04:31:02;;;;;;;24.55;14.93;;;1.40;99.90;;;;;;4990936;28;20038;-70
2023/01/19 04:33:28;;;;;;;22.73;15.07;;;1.40;99.90;;;;;;4977054;28;20045;-70
2023/01/19 04:35:54;;;;;;;20.95;13.80;;;1.30;99.90;;;;;;4959558;28;20042;-70
2023/01/19 04:38:26;;;;;;;20.23;13.38;;;1.40;99.90;;;;;;4973715;28;20129;-69
2023/01/19 04:40:53;;;;;;;21.67;13.05;;;1.30;99.90;;;;;;4987086;28;20046;-69
2023/01/19 04:43:22;;;;;;;20.23;12.77;;;1.30;99.90;;;;;;4999439;28;20173;-69
2023/01/19 04:45:49;;;;;;;18.65;12.10;;;1.30;99.90;;;;;;4987320;28;20144;-69
2023/01/19 04:48:20;;;;;;;17.70;10.85;;;1.30;99.90;;;;;;4990423;28;20138;-69
2023/01/19 04:50:52;;;;;;;16.10;10.18;;;1.30;99.90;;;;;;4991151;28;20430;-69
2023/01/19 04:53:18;;;;;;;18.65;11.10;;;1.40;99.90;;;;;;5009296;28;20132;-69
2023/01/19 04:55:54;;;;;;;15.32;10.43;;;1.30;99.90;;;;;;4988512;28;20118;-69
2023/01/19 04:58:23;;;;;;;17.63;11.10;;;1.30;99.90;;;;;;4973879;28;20107;-69
2023/01/19 05:00:57;;;;;;;13.38;9.18;;;1.50;99.90;;;;;;4975068;28;20050;-69
2023/01/19 05:03:27;;;;;;;14.55;9.45;;;1.30;99.90;;;;;;4988515;28;20083;-69
2023/01/19 05:05:53;;;;;;;16.48;9.00;;;1.50;99.90;;;;;;4989435;28;20034;-69
2023/01/19 05:08:24;;;;;;;14.93;9.85;;;1.30;99.90;;;;;;4975458;28;20042;-69
2023/01/19 05:10:50;;;;;;;15.63;10.15;;;1.30;99.90;;;;;;4976065;28;20045;-69
2023/01/19 05:13:16;;;;;;;13.60;9.30;;;1.20;99.90;;;;;;4964403;28;20069;-69
2023/01/19 05:15:41;;;;;;;14.30;9.48;;;1.20;99.90;;;;;;4964166;28;20061;-69
2023/01/19 05:18:07;;;;;;;14.38;8.90;;;1.30;99.90;;;;;;4988898;28;20715;-69
2023/01/19 05:20:33;;;;;;;17.20;9.70;;;1.20;99.90;;;;;;4990253;28;20045;-69
2023/01/19 05:23:02;;;;;;;17.70;9.55;;;1.20;99.90;;;;;;4974372;28;20204;-69
2023/01/19 05:25:28;;;;;;;15.13;9.02;;;1.60;99.90;;;;;;4990961;28;20104;-69
2023/01/19 05:27:53;;;;;;;15.05;9.15;;;1.30;99.90;;;;;;4975627;28;20065;-70
2023/01/19 05:30:19;;;;;;;15.75;9.50;;;1.30;99.90;;;;;;4999762;28;20657;-69
2023/01/19 05:32:46;;;;;;;14.75;9.68;;;1.40;99.90;;;;;;4959756;28;20037;-70
2023/01/19 05:35:15;;;;;;;19.38;10.15;;;1.40;99.90;;;;;;4990045;28;20032;-70
2023/01/19 05:37:42;;;;;;;17.25;10.50;;;1.40;99.90;;;;;;4990670;28;20396;-69
2023/01/19 05:40:11;;;;;;;20.83;10.93;;;1.40;99.90;;;;;;4958112;28;20041;-69
2023/01/19 05:42:37;;;;;;;18.55;10.75;;;1.40;99.90;;;;;;4975280;28;20039;-69
2023/01/19 05:45:03;;;;;;;25.50;11.90;;;1.70;99.90;;;;;;4974490;28;20093;-69
2023/01/19 05:47:29;;;;;;;20.38;11.95;;;1.40;99.90;;;;;;4987195;28;20502;-69
2023/01/19 05:49:55;;;;;;;22.35;13.27;;;1.40;99.90;;;;;;4990172;28;20041;-69
2023/01/19 05:52:23;;;;;;;24.25;13.30;;;1.40;99.90;;;;;;4990351;28;20044;-69
2023/01/19 05:54:50;;;;;;;27.58;13.48;;;1.50;99.90;;;;;;4990289;28;20483;-69
2023/01/19 05:57:17;;;;;;;25.02;12.95;;;1.50;99.90;;;;;;4972441;28;20476;-69
2023/01/19 05:59:43;;;;;;;22.83;13.48;;;1.50;99.90;;;;;;4968186;28;20060;-69
2023/01/19 06:02:09;;;;;;;22.38;12.65;;;1.50;99.90;;;;;;4972133;28;20388;-69
2023/01/19 06:04:37;;;;;;;25.13;14.10;;;1.50;99.90;;;;;;4963782;28;20049;-69
2023/01/19 06:07:05;;;;;;;27.55;14.80;;;1.50;99.90;;;;;;4970640;28;20463;-69
2023/01/19 06:09:32;;;;;;;30.80;13.68;;;1.50;99.90;;;;;;4955174;28;20129;-69
2023/01/19 06:11:58;;;;;;;21.40;12.75;;;1.50;99.90;;;;;;4969879;28;20038;-69
2023/01/19 06:14:25;;;;;;;24.25;11.50;;;1.50;99.90;;;;;;4954707;28;20045;-68
2023/01/19 06:16:51;;;;;;;21.50;11.45;;;1.50;99.90;;;;;;4955112;28;20053;-69
2023/01/19 06:19:18;;;;;;;23.92;11.15;;;1.70;99.90;;;;;;4970020;28;20041;-69
2023/01/19 06:21:48;;;;;;;20.38;10.98;;;1.60;99.90;;;;;;4954617;28;20557;-68
2023/01/19 06:24:15;;;;;;;16.73;9.35;;;1.50;99.90;;;;;;4937766;28;20049;-69
2023/01/19 06:26:42;;;;;;;15.98;8.82;;;1.50;99.90;;;;;;4970277;28;20072;-69
2023/01/19 06:29:10;;;;;;;23.08;8.63;;;1.50;99.90;;;;;;4965301;28;20038;-68
2023/01/19 06:31:37;;;;;;;14.77;7.38;;;1.50;99.90;;;;;;4975991;28;20073;-69
2023/01/19 06:34:03;;;;;;;16.13;7.22;;;1.60;99.90;;;;;;4982355;28;20038;-69
2023/01/19 06:36:28;;;;;;;21.80;7.72;;;1.70;99.90;;;;;;4966468;28;20077;-69
2023/01/19 06:38:54;;;;;;;14.23;6.68;;;1.60;99.90;;;;;;4966086;28;20133;-69
2023/01/19 06:41:22;;;;;;;10.10;5.25;;;1.60;99.90;;;;;;4951157;28;20047;-69
2023/01/19 06:43:48;;;;;;;13.30;6.13;;;1.60;99.90;;;;;;4954470;28;20125;-68
2023/01/19 06:46:20;;;;;;;9.63;5.20;;;1.60;99.90;;;;;;4983150;28;20534;-69
2023/01/19 06:48:46;;;;;;;10.52;4.78;;;1.60;99.90;;;;;;4936876;28;20105;-68
2023/01/19 06:51:14;;;;;;;11.25;4.47;;;1.60;99.90;;;;;;4954112;28;20046;-69
2023/01/19 06:53:40;;;;;;;9.88;3.75;;;1.60;99.90;;;;;;4964984;28;20410;-69
2023/01/19 06:56:06;;;;;;;8.40;4.13;;;1.60;99.90;;;;;;4967458;28;20061;-69
2023/01/19 06:58:33;;;;;;;5.18;2.88;;;1.60;99.90;;;;;;4950478;28;20053;-69
2023/01/19 07:01:04;;;;;;;13.15;3.85;;;1.70;99.90;;;;;;4986296;28;20045;-68
2023/01/19 07:03:30;;;;;;;12.98;2.85;;;1.70;99.90;;;;;;4972081;28;20046;-69
2023/01/19 07:05:57;;;;;;;6.95;2.83;;;1.80;99.90;;;;;;4985028;28;20048;-68
2023/01/19 07:08:23;;;;;;;9.77;2.75;;;1.80;99.90;;;;;;4987070;28;20038;-69
2023/01/19 07:10:49;;;;;;;9.85;2.28;;;1.80;99.90;;;;;;4987949;28;20091;-68
2023/01/19 07:13:15;;;;;;;11.75;2.70;;;1.80;99.90;;;;;;4986989;28;20050;-68
2023/01/19 07:15:41;;;;;;;6.05;1.90;;;1.90;99.90;;;;;;4983780;28;20111;-68
2023/01/19 07:18:08;;;;;;;6.00;2.38;;;1.90;99.90;;;;;;4984437;28;20434;-68
2023/01/19 07:20:34;;;;;;;4.18;1.88;;;1.90;99.90;;;;;;4982504;28;20048;-68
2023/01/19 07:23:01;;;;;;;6.05;2.70;;;1.90;99.90;;;;;;4990677;28;20052;-69
2023/01/19 07:25:29;;;;;;;7.32;2.08;;;2.00;99.90;;;;;;4987460;28;20764;-68
2023/01/19 07:27:58;;;;;;;9.77;1.95;;;2.00;99.90;;;;;;4982733;28;20045;-68
2023/01/19 07:30:26;;;;;;;9.95;1.70;;;2.00;99.90;;;;;;4990903;28;20041;-69
2023/01/19 07:32:57;;;;;;;6.70;1.77;;;2.00;99.90;;;;;;4987204;28;20033;-68
2023/01/19 07:35:24;;;;;;;6.78;1.92;;;2.00;99.90;;;;;;4988601;28;20041;-68
2023/01/19 07:37:52;;;;;;;6.50;1.80;;;2.10;99.90;;;;;;4973053;28;20089;-69
2023/01/19 07:40:22;;;;;;;10.00;1.80;;;2.00;99.90;;;;;;4988993;28;20045;-68
2023/01/19 07:42:49;;;;;;;6.60;2.35;;;2.10;99.90;;;;;;4973173;28;20084;-68
2023/01/19 07:45:20;;;;;;;4.82;1.77;;;2.20;99.90;;;;;;4984421;28;20390;-69
2023/01/19 07:47:49;;;;;;;9.20;2.45;;;2.00;99.90;;;;;;4989757;28;20073;-69
2023/01/19 07:50:20;;;;;;;7.47;2.30;;;2.00;99.90;;;;;;5003566;28;20096;-69
2023/01/19 07:52:46;;;;;;;11.65;2.75;;;2.00;99.90;;;;;;4988780;28;20040;-69
2023/01/19 07:55:12;;;;;;;4.57;1.70;;;2.00;99.90;;;;;;4987762;28;20509;-68
2023/01/19 07:57:38;;;;;;;6.72;2.40;;;2.10;99.90;;;;;;4979542;28;20116;-69
2023/01/19 08:00:04;;;;;;;6.88;2.28;;;2.10;99.90;;;;;;4969891;28;20143;-68
2023/01/19 08:02:41;;;;;;;10.82;1.98;;;2.20;99.90;;;;;;4959561;28;20049;-69
2023/01/19 08:05:14;;;;;;;7.38;1.75;;;2.30;99.90;;;;;;4976099;28;20038;-69
2023/01/19 08:07:44;;;;;;;7.85;1.60;;;2.40;99.90;;;;;;4973524;28;20128;-68
2023/01/19 08:10:14;;;;;;;6.72;1.80;;;2.50;99.90;;;;;;4959631;28;20034;-68
2023/01/19 08:12:42;;;;;;;6.65;1.80;;;2.50;99.90;;;;;;4973983;28;20046;-69
2023/01/19 08:15:10;;;;;;;6.57;1.58;;;2.50;99.90;;;;;;4946816;28;20422;-68
2023/01/19 08:17:37;;;;;;;35.38;2.22;;;2.50;99.90;;;;;;4977898;28;20069;-68
2023/01/19 08:20:04;;;;;;;6.13;2.65;;;2.60;99.90;;;;;;4977843;28;20121;-69
2023/01/19 08:22:29;;;;;;;7.93;1.65;;;2.60;99.90;;;;;;4979680;28;20045;-69
2023/01/19 08:24:55;;;;;;;11.10;1.80;;;2.70;99.90;;;;;;4962953;28;20038;-69
2023/01/19 08:27:21;;;;;;;6.93;2.00;;;2.70;99.90;;;;;;4966535;28;20041;-69
2023/01/19 08:29:47;;;;;;;8.52;2.00;;;2.70;99.90;;;;;;4951494;28;20075;-69
2023/01/19 08:32:15;;;;;;;9.80;2.67;;;2.70;99.90;;;;;;4982915;28;20050;-68
2023/01/19 08:34:41;;;;;;;11.48;1.70;;;2.70;99.90;;;;;;4979853;28;20081;-68
2023/01/19 08:37:07;;;;;;;9.30;1.90;;;2.70;99.90;;;;;;4982746;28;20076;-69
2023/01/19 08:39:33;;;;;;;17.17;2.00;;;2.60;99.90;;;;;;4969167;28;20038;-69
2023/01/19 08:41:59;;;;;;;4.97;2.10;;;2.70;99.90;;;;;;4971525;28;20069;-69
2023/01/19 08:44:26;;;;;;;7.75;2.20;;;2.60;99.90;;;;;;4965697;28;20047;-69
2023/01/19 08:46:51;;;;;;;10.52;1.90;;;2.50;99.90;;;;;;4966679;28;20060;-69
2023/01/19 08:49:17;;;;;;;3.92;2.00;;;2.50;99.90;;;;;;4979675;28;20059;-69
2023/01/19 08:51:46;;;;;;;11.80;2.85;;;2.50;99.90;;;;;;4966930;28;20045;-68
2023/01/19 08:54:12;;;;;;;10.15;2.38;;;2.40;99.90;;;;;;4990041;28;20108;-69
2023/01/19 08:56:38;;;;;;;12.65;2.38;;;2.50;99.90;;;;;;5009970;28;21187;-69
2023/01/19 08:59:07;;;;;;;10.70;2.28;;;2.40;99.90;;;;;;4975913;28;20084;-69
2023/01/19 09:01:32;;;;;;;8.15;2.55;;;2.40;99.90;;;;;;4987725;28;20038;-68
2023/01/19 09:03:58;;;;;;;16.17;5.78;;;2.50;99.90;;;;;;4979911;28;20042;-69
2023/01/19 09:06:24;;;;;;;16.35;3.40;;;2.60;99.90;;;;;;4992023;28;20077;-68
2023/01/19 09:08:51;;;;;;;11.27;3.40;;;2.50;99.90;;;;;;4966183;28;20056;-68
2023/01/19 09:11:20;;;;;;;11.73;2.88;;;2.60;99.90;;;;;;4964266;28;20042;-68
2023/01/19 09:13:46;;;;;;;12.15;3.10;;;2.70;99.90;;;;;;4987432;28;20046;-68
2023/01/19 09:16:13;;;;;;;13.43;3.40;;;2.80;99.90;;;;;;4961403;28;20263;-69
2023/01/19 09:18:48;;;;;;;13.73;2.63;;;2.90;99.90;;;;;;4977932;28;20084;-68
2023/01/19 09:21:14;;;;;;;15.02;2.90;;;3.30;99.90;;;;;;4991411;28;20483;-69
2023/01/19 09:23:44;;;;;;;9.70;2.90;;;4.00;99.90;;;;;;4976208;28;20093;-68
2023/01/19 09:26:09;;;;;;;7.68;2.45;;;4.40;99.90;;;;;;4974616;28;20041;-68
2023/01/19 09:28:44;;;;;;;11.67;2.77;;;4.60;99.90;;;;;;4991682;28;20076;-69
2023/01/19 09:31:10;;;;;;;11.75;2.65;;;4.90;99.90;;;;;;5009458;28;20789;-69
2023/01/19 09:33:41;;;;;;;13.80;3.00;;;5.20;99.90;;;;;;4990863;28;20042;-69
2023/01/19 09:36:09;;;;;;;7.03;2.00;;;5.40;99.90;;;;;;4993729;28;20042;-69
2023/01/19 09:38:37;;;;;;;10.80;2.67;;;5.40;99.90;;;;;;4976952;28;20053;-69
2023/01/19 09:41:10;;;;;;;11.00;2.35;;;5.60;99.90;;;;;;4991516;28;20187;-69
2023/01/19 09:43:47;;;;;;;18.70;3.20;;;5.60;99.90;;;;;;5011841;28;20049;-68
2023/01/19 09:46:34;;;;;;;9.60;2.85;;;5.70;99.90;;;;;;4993834;28;20092;-69
2023/01/19 09:49:18;;;;;;;16.27;2.70;;;6.10;99.90;;;;;;4992264;28;20563;-69
2023/01/19 09:51:50;;;;;;;15.70;4.18;;;6.10;99.90;;;;;;4997840;28;20235;-69
2023/01/19 09:54:48;;;;;;;13.95;2.42;;;5.60;99.90;;;;;;4994390;28;20049;-69
2023/01/19 09:57:15;;;;;;;14.32;3.20;;;5.10;99.90;;;;;;4993338;28;20411;-69
2023/01/19 09:59:46;;;;;;;8.30;2.17;;;4.80;99.90;;;;;;4994456;28;20176;-69
2023/01/19 10:02:38;;;;;;;12.63;2.80;;;4.50;99.90;;;;;;5009103;28;20137;-69
2023/01/19 10:05:50;;;;;;;13.40;2.70;;;4.30;99.90;;;;;;4991530;28;20038;-69
2023/01/19 10:08:31;;;;;;;9.23;2.90;;;4.20;99.90;;;;;;4930360;29;20119;-69
2023/01/19 10:11:00;;;;;;;14.88;2.83;;;4.40;99.90;;;;;;4992579;28;20049;-69
2023/01/19 10:13:51;;;;;;;12.10;2.30;;;5.10;99.90;;;;;;4991547;28;20132;-69
2023/01/19 10:16:16;;;;;;;11.65;2.65;;;5.20;99.90;;;;;;5009858;28;20538;-69
2023/01/19 10:18:50;;;;;;;11.55;2.72;;;5.00;99.90;;;;;;4993308;28;20113;-69
2023/01/19 10:21:30;;;;;;;11.50;2.28;;;4.80;99.90;;;;;;4991656;28;20517;-69
2023/01/19 10:24:31;;;;;;;12.38;2.53;;;4.80;99.90;;;;;;4976189;28;20085;-68
2023/01/19 10:26:58;;;;;;;13.38;3.63;;;4.70;99.90;;;;;;4990793;28;20053;-68
2023/01/19 10:29:29;;;;;;;15.32;2.90;;;4.80;99.90;;;;;;4973802;28;20528;-68
2023/01/19 10:32:20;;;;;;;7.90;2.88;;;4.80;99.90;;;;;;4989960;28;20128;-68
2023/01/19 10:34:48;;;;;;;8.23;1.90;;;5.00;99.90;;;;;;4992114;28;20050;-68
2023/01/19 10:37:17;;;;;;;13.82;2.25;;;5.00;99.90;;;;;;5009994;28;20129;-68
2023/01/19 10:39:52;;;;;;;12.15;3.08;;;5.00;99.90;;;;;;4998040;28;20099;-69
2023/01/19 10:42:18;;;;;;;9.60;2.20;;;5.20;99.90;;;;;;4989571;28;20058;-68
2023/01/19 10:44:45;;;;;;;10.02;2.33;;;5.60;99.90;;;;;;4982260;28;20046;-69
2023/01/19 10:47:18;;;;;;;10.65;2.63;;;5.80;99.90;;;;;;4992630;28;20097;-69
2023/01/19 10:49:50;;;;;;;10.68;2.33;;;6.00;99.90;;;;;;4979238;28;20045;-68
2023/01/19 10:52:38;;;;;;;9.77;2.10;;;6.10;99.90;;;;;;4990744;28;20100;-68
2023/01/19 10:55:09;;;;;;;11.07;2.67;;;5.90;99.90;;;;;;4975737;28;20041;-68
2023/01/19 10:57:42;;;;;;;7.75;2.85;;;5.70;99.90;;;;;;4976320;28;20053;-69
2023/01/19 11:00:36;;;;;;;23.47;2.80;;;5.60;99.90;;;;;;4992076;28;20054;-69
2023/01/19 11:03:22;;;;;;;9.40;2.30;;;5.70;99.90;;;;;;4921087;29;20052;-68
2023/01/19 11:05:51;;;;;;;10.82;2.60;;;6.00;99.90;;;;;;4928346;29;20055;-68
2023/01/19 11:08:34;;;;;;;12.02;2.63;;;6.20;99.90;;;;;;4976858;28;20046;-68
2023/01/19 11:11:08;;;;;;;11.20;2.20;;;6.10;99.90;;;;;;4965971;28;20045;-68
2023/01/19 11:13:35;;;;;;;10.10;2.75;;;6.10;99.90;;;;;;4973959;28;20129;-68
2023/01/19 11:16:21;;;;;;;11.82;2.75;;;5.80;99.90;;;;;;5009067;28;20391;-68
2023/01/19 11:18:51;;;;;;;7.93;2.60;;;5.70;99.90;;;;;;4992240;28;20033;-68
2023/01/19 11:21:34;;;;;;;9.85;2.70;;;5.60;99.90;;;;;;4990108;28;20034;-68
2023/01/19 11:24:07;;;;;;;7.68;2.97;;;5.50;99.90;;;;;;4976174;28;21316;-68
2023/01/19 11:26:46;;;;;;;8.23;2.22;;;5.50;99.90;;;;;;4983716;28;20050;-68
2023/01/19 11:29:24;;;;;;;5.22;1.88;;;5.40;99.90;;;;;;4991969;28;20030;-68
2023/01/19 11:31:56;;;;;;;5.68;2.35;;;5.40;99.90;;;;;;4992095;28;20104;-68
2023/01/19 11:34:34;;;;;;;6.68;1.98;;;5.30;99.90;;;;;;4976682;28;20072;-68
2023/01/19 11:37:27;;;;;;;8.93;1.98;;;5.20;99.90;;;;;;4992457;28;20042;-68
2023/01/19 11:40:17;;;;;;;8.55;2.67;;;5.20;99.90;;;;;;4992174;28;21604;-68
2023/01/19 11:42:46;;;;;;;15.43;2.80;;;5.20;99.90;;;;;;4984726;28;20049;-68
2023/01/19 11:45:18;;;;;;;6.63;2.03;;;5.20;99.90;;;;;;4975928;28;20050;-68
2023/01/19 11:47:48;;;;;;;13.35;2.55;;;5.20;99.90;;;;;;4970915;28;20046;-68
2023/01/19 11:50:46;;;;;;;12.30;2.15;;;5.10;99.90;;;;;;4987847;28;20045;-68
2023/01/19 11:53:36;;;;;;;5.80;1.65;;;5.10;99.90;;;;;;4988598;28;20285;-68
2023/01/19 11:56:09;;;;;;;6.97;3.05;;;5.10;99.90;;;;;;4982351;28;20041;-68
2023/01/19 11:58:52;;;;;;;5.10;1.80;;;5.10;99.90;;;;;;4988350;28;20033;-69
2023/01/19 12:01:30;;;;;;;9.65;1.75;;;5.10;99.90;;;;;;4990568;28;20053;-68
2023/01/19 12:04:11;;;;;;;5.97;2.05;;;5.10;99.90;;;;;;4993341;28;20058;-68
2023/01/19 12:06:46;;;;;;;8.93;2.13;;;5.10;99.90;;;;;;4985464;28;20475;-68
2023/01/19 12:09:26;;;;;;;5.50;1.27;;;5.10;99.90;;;;;;4992723;28;20034;-68
2023/01/19 12:12:06;;;;;;;9.25;2.08;;;5.10;99.90;;;;;;4991895;28;20049;-68
2023/01/19 12:15:04;;;;;;;6.53;1.83;;;5.10;99.90;;;;;;4991617;28;20602;-68
2023/01/19 12:17:34;;;;;;;7.22;2.10;;;5.20;99.90;;;;;;4993551;28;20048;-68
2023/01/19 12:20:05;;;;;;;6.82;1.85;;;5.20;99.90;;;;;;4976235;28;20052;-68
2023/01/19 12:22:49;;;;;;;3.40;1.48;;;5.20;99.90;;;;;;4995777;28;20046;-68
2023/01/19 12:25:40;;;;;;;10.25;2.20;;;5.30;99.90;;;;;;4992879;28;20045;-68
2023/01/19 12:28:14;;;;;;;7.40;1.90;;;5.40;99.90;;;;;;4993515;28;20034;-68
2023/01/19 12:30:43;;;;;;;12.13;2.25;;;5.40;99.90;;;;;;4992276;28;20404;-68
2023/01/19 12:33:32;;;;;;;8.38;1.42;;;5.50;99.90;;;;;;5007662;28;20037;-68
2023/01/19 12:36:22;;;;;;;5.40;1.30;;;5.70;99.90;;;;;;5009933;28;20080;-68
2023/01/19 12:39:05;;;;;;;6.93;1.77;;;5.80;99.90;;;;;;5007885;28;20045;-68
2023/01/19 12:41:39;;;;;;;5.70;1.88;;;6.00;99.90;;;;;;4992110;28;20045;-69
2023/01/19 12:44:08;;;;;;;6.88;2.10;;;6.10;99.90;;;;;;4992310;28;20053;-68
2023/01/19 12:46:37;;;;;;;9.38;2.05;;;6.10;99.90;;;;;;4991717;28;20042;-67
2023/01/19 12:49:47;;;;;;;3.50;1.23;;;6.20;99.90;;;;;;4992785;28;20049;-68
2023/01/19 12:52:27;;;;;;;6.95;1.33;;;6.10;99.90;;;;;;4990264;28;20200;-68
2023/01/19 12:55:01;;;;;;;6.00;1.80;;;6.00;99.90;;;;;;4992595;28;21045;-68
2023/01/19 12:58:03;;;;;;;6.90;1.90;;;5.90;99.90;;;;;;4988773;28;20604;-68
2023/01/19 13:00:35;;;;;;;3.20;2.00;;;5.60;99.90;;;;;;5009582;28;20075;-68
2023/01/19 13:03:15;;;;;;;6.38;1.80;;;5.40;99.90;;;;;;4994883;28;20057;-68
2023/01/19 13:06:00;;;;;;;7.65;1.75;;;5.20;99.90;;;;;;4993851;28;20048;-68
2023/01/19 13:08:47;;;;;;;3.47;1.52;;;5.10;99.90;;;;;;4991628;28;20042;-68
2023/01/19 13:11:25;;;;;;;8.50;2.65;;;5.10;99.90;;;;;;4989610;28;20052;-68
2023/01/19 13:13:57;;;;;;;10.23;3.22;;;5.00;99.90;;;;;;4990565;28;20097;-68
2023/01/19 13:16:43;;;;;;;10.23;2.17;;;4.90;99.90;;;;;;4975118;28;20510;-68